createdAt,value
2019-02-17T00:02:03.889Z,0.71
2019-02-17T00:04:32.304Z,0.86
2019-02-17T00:07:00.691Z,0.66
2019-02-17T00:09:32.108Z,0.80
2019-02-17T00:12:00.487Z,0.97
2019-02-17T00:14:28.836Z,1.18
2019-02-17T00:16:57.191Z,1.30
2019-02-17T00:19:25.643Z,1.18
2019-02-17T00:21:53.995Z,1.07
2019-02-17T00:24:22.380Z,0.96
2019-02-17T00:26:50.802Z,1.10
2019-02-17T00:29:19.258Z,1.08
2019-02-17T00:31:47.615Z,1.00
2019-02-17T00:34:16.065Z,1.02
2019-02-17T00:36:44.412Z,0.97
2019-02-17T00:39:12.792Z,0.85
2019-02-17T00:41:41.148Z,0.98
2019-02-17T00:44:09.949Z,0.86
2019-02-17T00:46:38.577Z,0.84
2019-02-17T00:49:06.938Z,0.80
2019-02-17T00:51:35.816Z,0.44
2019-02-17T00:54:04.198Z,0.21
2019-02-17T00:56:32.556Z,-0.01
2019-02-17T00:59:09.823Z,0.02
2019-02-17T01:01:31.026Z,-0.19
2019-02-17T01:03:59.414Z,0.02
2019-02-17T01:06:27.767Z,0.06
2019-02-17T01:08:56.153Z,0.06
2019-02-17T01:11:24.501Z,0.10
2019-02-17T01:13:52.895Z,-0.16
2019-02-17T01:16:21.252Z,-0.34
2019-02-17T01:18:49.634Z,-0.13
2019-02-17T01:21:17.984Z,0.09
2019-02-17T01:23:46.367Z,0.07
2019-02-17T01:26:14.715Z,-0.06
2019-02-17T01:28:43.102Z,-0.17
2019-02-17T01:31:11.463Z,-0.36
2019-02-17T01:33:39.854Z,-0.08
2019-02-17T01:36:08.208Z,-0.13
2019-02-17T01:38:36.607Z,-0.05
2019-02-17T01:41:05.025Z,-0.68
2019-02-17T01:43:33.383Z,-0.60
2019-02-17T01:46:01.840Z,-0.39
2019-02-17T01:48:30.198Z,-0.14
2019-02-17T01:50:58.585Z,-0.18
2019-02-17T01:53:26.941Z,-0.27
2019-02-17T01:55:55.328Z,-0.41
2019-02-17T01:58:23.691Z,-0.31
2019-02-17T02:00:52.073Z,-0.15
2019-02-17T02:03:20.439Z,-0.10
2019-02-17T02:05:48.891Z,-0.04
2019-02-17T02:08:17.240Z,-0.29
2019-02-17T02:10:45.635Z,-0.35
2019-02-17T02:13:14.177Z,-0.29
2019-02-17T02:15:42.567Z,-0.62
2019-02-17T02:18:10.920Z,-0.63
2019-02-17T02:20:39.379Z,-0.78
2019-02-17T02:23:07.734Z,-0.49
2019-02-17T02:25:36.121Z,-0.49
2019-02-17T02:28:04.479Z,-0.38
2019-02-17T02:30:32.870Z,-0.39
2019-02-17T02:33:01.232Z,-0.40
2019-02-17T02:35:29.678Z,-0.53
2019-02-17T02:37:58.030Z,-0.53
2019-02-17T02:40:26.411Z,-0.69
2019-02-17T02:42:54.774Z,-0.72
2019-02-17T02:45:23.124Z,-0.44
2019-02-17T02:47:51.512Z,-0.16
2019-02-17T02:50:19.873Z,-0.32
2019-02-17T02:52:48.260Z,-0.54
2019-02-17T02:55:16.685Z,-0.50
2019-02-17T02:57:45.086Z,-0.42
2019-02-17T03:00:14.072Z,-0.32
2019-02-17T03:02:42.460Z,-0.30
2019-02-17T03:05:10.891Z,-0.27
2019-02-17T03:07:39.349Z,-0.28
2019-02-17T03:10:09.146Z,-0.56
2019-02-17T03:12:37.540Z,-0.47
2019-02-17T03:15:07.935Z,-0.51
2019-02-17T03:17:36.327Z,-0.43
2019-02-17T03:20:07.124Z,-0.94
2019-02-17T03:22:35.586Z,-0.90
2019-02-17T03:25:04.774Z,-0.66
2019-02-17T03:27:33.161Z,-0.50
2019-02-17T03:30:04.987Z,-0.42
2019-02-17T03:32:31.632Z,-0.42
2019-02-17T03:34:59.994Z,-1.19
2019-02-17T03:37:28.750Z,-1.14
2019-02-17T03:39:57.113Z,-1.09
2019-02-17T03:42:25.570Z,-0.96
2019-02-17T03:44:53.928Z,-0.96
2019-02-17T03:47:22.313Z,-0.94
2019-02-17T03:49:50.670Z,-0.86
2019-02-17T03:52:19.074Z,-0.70
2019-02-17T03:54:47.517Z,-1.23
2019-02-17T03:57:15.880Z,-0.94
2019-02-17T03:59:44.242Z,-0.86
2019-02-17T04:02:12.662Z,-0.77
2019-02-17T04:04:41.333Z,-0.75
2019-02-17T04:07:09.751Z,-0.53
2019-02-17T04:09:38.236Z,-0.71
2019-02-17T04:12:06.595Z,-0.84
2019-02-17T04:14:35.054Z,-0.80
2019-02-17T04:17:03.519Z,-0.81
2019-02-17T04:19:31.891Z,-0.97
2019-02-17T04:22:00.319Z,-0.88
2019-02-17T04:24:28.848Z,-1.07
2019-02-17T04:26:57.209Z,-0.88
2019-02-17T04:29:25.598Z,-0.81
2019-02-17T04:31:53.952Z,-0.81
2019-02-17T04:34:22.342Z,-0.85
2019-02-17T04:36:50.703Z,-1.01
2019-02-17T04:39:19.090Z,-1.01
2019-02-17T04:41:47.445Z,-0.90
2019-02-17T04:44:15.830Z,-1.01
2019-02-17T04:46:44.189Z,-1.20
2019-02-17T04:49:12.578Z,-1.00
2019-02-17T04:51:40.939Z,-1.13
2019-02-17T04:54:09.329Z,-1.05
2019-02-17T04:56:37.680Z,-0.95
2019-02-17T04:59:06.072Z,-1.00
2019-02-17T05:01:34.430Z,-0.89
2019-02-17T05:04:02.796Z,-0.93
2019-02-17T05:06:31.169Z,-0.93
2019-02-17T05:08:59.527Z,-1.04
2019-02-17T05:11:27.914Z,-1.09
2019-02-17T05:13:56.276Z,-1.13
2019-02-17T05:16:24.663Z,-1.04
2019-02-17T05:18:53.092Z,-1.04
2019-02-17T05:21:21.479Z,-1.08
2019-02-17T05:23:49.843Z,-1.18
2019-02-17T05:26:18.232Z,-1.28
2019-02-17T05:28:46.588Z,-1.40
2019-02-17T05:31:14.976Z,-1.31
2019-02-17T05:33:43.329Z,-1.31
2019-02-17T05:36:11.714Z,-1.13
2019-02-17T05:38:40.068Z,-1.30
2019-02-17T05:41:08.459Z,-1.23
2019-02-17T05:43:36.826Z,-1.13
2019-02-17T05:46:05.815Z,-1.27
2019-02-17T05:48:34.623Z,-1.27
2019-02-17T05:51:03.009Z,-1.35
2019-02-17T05:53:31.373Z,-1.28
2019-02-17T05:55:59.764Z,-1.49
2019-02-17T05:58:28.112Z,-1.35
2019-02-17T06:01:03.999Z,-1.26
2019-02-17T06:03:26.587Z,-1.64
2019-02-17T06:05:54.979Z,-1.62
2019-02-17T06:08:23.334Z,-1.62
2019-02-17T06:10:51.722Z,-1.38
2019-02-17T06:13:20.077Z,-1.67
2019-02-17T06:15:48.469Z,-1.34
2019-02-17T06:18:16.830Z,-1.93
2019-02-17T06:20:45.373Z,-1.90
2019-02-17T06:23:13.729Z,-1.74
2019-02-17T06:25:42.195Z,-1.75
2019-02-17T06:28:10.551Z,-1.63
2019-02-17T06:30:38.941Z,-1.53
2019-02-17T06:33:07.296Z,-1.46
2019-02-17T06:35:35.679Z,-1.44
2019-02-17T06:38:04.037Z,-1.33
2019-02-17T06:40:32.429Z,-1.33
2019-02-17T06:43:00.788Z,-1.19
2019-02-17T06:45:29.142Z,-1.19
2019-02-17T06:47:57.536Z,-1.39
2019-02-17T06:50:25.891Z,-1.67
2019-02-17T06:52:54.282Z,-1.67
2019-02-17T06:55:24.282Z,-1.67
2019-02-17T06:57:52.682Z,-1.46
2019-02-17T07:00:25.545Z,-1.34
2019-02-17T07:02:53.931Z,-1.20
2019-02-17T07:05:26.917Z,-1.06
2019-02-17T07:07:55.294Z,-1.24
2019-02-17T07:10:23.649Z,-1.33
2019-02-17T07:12:52.037Z,-1.30
2019-02-17T07:15:20.463Z,-1.35
2019-02-17T07:17:48.846Z,-1.23
2019-02-17T07:20:17.209Z,-1.03
2019-02-17T07:22:46.012Z,-0.78
2019-02-17T07:25:16.927Z,-0.85
2019-02-17T07:27:45.696Z,-1.31
2019-02-17T07:30:16.513Z,-1.31
2019-02-17T07:32:45.781Z,-1.15
2019-02-17T07:35:15.485Z,-0.97
2019-02-17T07:37:44.358Z,-0.79
2019-02-17T07:40:14.680Z,-0.72
2019-02-17T07:42:44.168Z,-0.65
2019-02-17T07:45:13.219Z,-0.49
2019-02-17T07:47:42.344Z,-0.42
2019-02-17T07:50:11.910Z,-0.35
2019-02-17T07:52:40.846Z,-0.23
2019-02-17T07:55:12.832Z,-0.19
2019-02-17T07:57:41.826Z,-0.26
2019-02-17T08:00:12.355Z,0.03
2019-02-17T08:02:42.118Z,0.07
2019-02-17T08:05:12.886Z,0.20
2019-02-17T08:07:41.555Z,0.31
2019-02-17T08:10:10.718Z,0.40
2019-02-17T08:12:39.131Z,0.43
2019-02-17T08:15:11.258Z,0.57
2019-02-17T08:17:39.917Z,0.65
2019-02-17T08:20:10.611Z,0.81
2019-02-17T08:22:39.049Z,0.86
2019-02-17T08:25:08.873Z,1.01
2019-02-17T08:27:37.324Z,0.98
2019-02-17T08:30:08.889Z,1.04
2019-02-17T08:32:38.329Z,1.10
2019-02-17T08:35:07.639Z,1.15
2019-02-17T08:37:36.053Z,1.29
2019-02-17T08:40:07.365Z,1.39
2019-02-17T08:42:35.834Z,1.41
2019-02-17T08:45:05.265Z,1.55
2019-02-17T08:47:33.646Z,1.61
2019-02-17T08:50:02.193Z,1.69
2019-02-17T08:52:30.570Z,1.74
2019-02-17T08:54:59.032Z,1.84
2019-02-17T08:57:27.440Z,1.93
2019-02-17T08:59:55.904Z,1.94
2019-02-17T09:02:24.272Z,2.06
2019-02-17T09:04:52.690Z,2.16
2019-02-17T09:07:21.050Z,2.28
2019-02-17T09:09:49.467Z,2.31
2019-02-17T09:12:17.939Z,2.50
2019-02-17T09:14:46.426Z,2.59
2019-02-17T09:17:14.961Z,2.70
2019-02-17T09:19:43.492Z,2.83
2019-02-17T09:22:11.999Z,2.89
2019-02-17T09:24:40.380Z,2.91
2019-02-17T09:27:09.354Z,3.06
2019-02-17T09:29:37.866Z,3.19
2019-02-17T09:32:15.700Z,3.30
2019-02-17T09:34:36.384Z,3.49
2019-02-17T09:37:05.069Z,3.55
2019-02-17T09:39:33.413Z,3.70
2019-02-17T09:42:01.925Z,3.91
2019-02-17T09:44:30.428Z,4.01
2019-02-17T09:47:01.073Z,4.07
2019-02-17T09:49:29.909Z,4.29
2019-02-17T09:51:58.556Z,4.34
2019-02-17T09:54:26.966Z,4.55
2019-02-17T09:56:56.120Z,4.60
2019-02-17T09:59:24.568Z,4.83
2019-02-17T10:01:53.126Z,4.90
2019-02-17T10:04:21.601Z,5.01
2019-02-17T10:06:50.094Z,5.14
2019-02-17T10:09:18.541Z,5.26
2019-02-17T10:11:46.938Z,5.43
2019-02-17T10:14:15.387Z,5.53
2019-02-17T10:16:43.966Z,5.67
2019-02-17T10:19:12.567Z,5.80
2019-02-17T10:21:41.114Z,6.01
2019-02-17T10:24:09.578Z,6.04
2019-02-17T10:26:38.043Z,6.20
2019-02-17T10:29:06.524Z,6.25
2019-02-17T10:31:35.011Z,6.40
2019-02-17T10:34:03.498Z,6.43
2019-02-17T10:36:32.012Z,6.65
2019-02-17T10:39:00.419Z,6.91
2019-02-17T10:41:28.777Z,7.43
2019-02-17T10:43:57.208Z,7.28
2019-02-17T10:46:25.563Z,7.19
2019-02-17T10:48:53.984Z,7.12
2019-02-17T10:51:22.494Z,7.35
2019-02-17T10:53:50.980Z,7.69
2019-02-17T10:56:19.508Z,7.81
2019-02-17T10:58:47.995Z,8.15
2019-02-17T11:01:16.443Z,8.39
2019-02-17T11:03:56.863Z,8.08
2019-02-17T11:06:25.316Z,8.28
2019-02-17T11:08:53.720Z,8.49
2019-02-17T11:11:22.169Z,8.90
2019-02-17T11:13:50.670Z,8.86
2019-02-17T11:16:19.101Z,8.80
2019-02-17T11:18:47.582Z,9.23
2019-02-17T11:21:16.002Z,8.97
2019-02-17T11:23:44.419Z,9.35
2019-02-17T11:26:12.859Z,9.33
2019-02-17T11:28:41.262Z,9.56
2019-02-17T11:31:09.701Z,9.68
2019-02-17T11:33:38.103Z,9.70
2019-02-17T11:36:06.492Z,9.68
2019-02-17T11:38:34.882Z,9.48
2019-02-17T11:41:03.270Z,10.03
2019-02-17T11:43:31.733Z,10.07
2019-02-17T11:46:00.100Z,10.26
2019-02-17T11:48:28.507Z,10.16
2019-02-17T11:50:56.880Z,10.34
2019-02-17T11:53:25.329Z,10.04
2019-02-17T11:55:53.754Z,10.13
2019-02-17T11:58:22.200Z,10.40
2019-02-17T12:00:50.687Z,10.81
2019-02-17T12:03:19.202Z,10.84
2019-02-17T12:05:47.600Z,11.17
2019-02-17T12:08:16.133Z,11.20
2019-02-17T12:10:44.524Z,11.04
2019-02-17T12:13:12.961Z,10.82
2019-02-17T12:15:41.442Z,11.37
2019-02-17T12:18:09.893Z,11.56
2019-02-17T12:20:46.294Z,11.38
2019-02-17T12:23:18.938Z,11.55
2019-02-17T12:25:54.820Z,11.83
2019-02-17T12:28:27.270Z,12.27
2019-02-17T12:30:55.739Z,12.24
2019-02-17T12:33:24.095Z,11.82
2019-02-17T12:35:52.509Z,12.28
2019-02-17T12:38:20.850Z,12.23
2019-02-17T12:40:49.308Z,12.17
2019-02-17T12:43:17.676Z,12.44
2019-02-17T12:45:46.124Z,12.73
2019-02-17T12:48:14.487Z,12.96
2019-02-17T12:50:42.964Z,13.14
2019-02-17T12:53:11.380Z,12.89
2019-02-17T12:55:39.839Z,12.80
2019-02-17T12:58:08.276Z,12.56
2019-02-17T13:00:36.797Z,12.69
2019-02-17T13:03:05.825Z,12.72
2019-02-17T13:05:34.219Z,13.16
2019-02-17T13:08:02.651Z,13.11
2019-02-17T13:10:31.126Z,13.24
2019-02-17T13:12:59.559Z,13.36
2019-02-17T13:15:28.037Z,13.57
2019-02-17T13:17:56.420Z,13.29
2019-02-17T13:20:24.808Z,13.22
2019-02-17T13:22:53.162Z,13.35
2019-02-17T13:25:21.634Z,13.43
2019-02-17T13:27:50.071Z,13.24
2019-02-17T13:30:23.583Z,13.57
2019-02-17T13:32:51.975Z,14.13
2019-02-17T13:35:20.461Z,14.26
2019-02-17T13:37:48.934Z,14.02
2019-02-17T13:40:17.368Z,14.14
2019-02-17T13:42:45.831Z,14.26
2019-02-17T13:45:15.347Z,14.33
2019-02-17T13:47:43.820Z,14.58
2019-02-17T13:50:14.377Z,14.39
2019-02-17T13:52:42.771Z,14.63
2019-02-17T13:55:11.326Z,14.70
2019-02-17T13:57:39.858Z,14.64
2019-02-17T14:00:14.438Z,14.77
2019-02-17T14:02:42.903Z,14.73
2019-02-17T14:05:11.322Z,14.84
2019-02-17T14:07:39.796Z,14.53
2019-02-17T14:10:15.536Z,14.65
2019-02-17T14:12:44.120Z,14.92
2019-02-17T14:15:20.191Z,14.95
2019-02-17T14:17:48.666Z,14.90
2019-02-17T14:20:17.095Z,15.05
2019-02-17T14:22:45.550Z,14.89
2019-02-17T14:25:13.984Z,14.98
2019-02-17T14:27:42.449Z,15.15
2019-02-17T14:30:16.604Z,15.23
2019-02-17T14:32:45.074Z,15.19
2019-02-17T14:35:13.948Z,15.15
2019-02-17T14:37:42.479Z,15.19
2019-02-17T14:40:14.150Z,15.31
2019-02-17T14:42:42.602Z,15.28
2019-02-17T14:45:12.703Z,15.13
2019-02-17T14:47:41.164Z,15.06
2019-02-17T14:50:09.643Z,15.17
2019-02-17T14:52:38.106Z,15.25
2019-02-17T14:55:11.139Z,15.43
2019-02-17T14:57:39.592Z,15.33
2019-02-17T15:00:11.407Z,15.42
2019-02-17T15:02:39.790Z,15.42
2019-02-17T15:05:09.697Z,15.49
2019-02-17T15:07:38.198Z,15.41
2019-02-17T15:10:14.337Z,15.46
2019-02-17T15:12:44.246Z,15.44
2019-02-17T15:15:15.165Z,15.39
2019-02-17T15:17:43.592Z,15.50
2019-02-17T15:20:25.141Z,15.53
2019-02-17T15:22:53.648Z,15.54
2019-02-17T15:25:22.406Z,15.50
2019-02-17T15:27:50.830Z,15.50
2019-02-17T15:30:19.359Z,15.57
2019-02-17T15:32:48.120Z,15.63
2019-02-17T15:35:16.543Z,15.73
2019-02-17T15:37:44.982Z,15.40
2019-02-17T15:40:15.180Z,15.31
2019-02-17T15:42:43.830Z,15.41
2019-02-17T15:45:13.356Z,15.55
2019-02-17T15:47:41.782Z,15.49
2019-02-17T15:50:11.819Z,15.46
2019-02-17T15:52:40.246Z,15.40
2019-02-17T15:55:13.000Z,15.24
2019-02-17T15:57:41.988Z,15.25
2019-02-17T16:00:15.403Z,15.31
2019-02-17T16:02:43.826Z,15.30
2019-02-17T16:05:12.541Z,15.12
2019-02-17T16:07:41.427Z,15.06
2019-02-17T16:10:11.667Z,14.96
2019-02-17T16:12:40.082Z,15.00
2019-02-17T16:15:14.657Z,14.89
2019-02-17T16:17:43.313Z,14.86
2019-02-17T16:20:13.424Z,14.68
2019-02-17T16:22:41.849Z,14.48
2019-02-17T16:25:11.091Z,14.41
2019-02-17T16:27:39.585Z,14.33
2019-02-17T16:30:16.100Z,14.29
2019-02-17T16:32:44.518Z,14.01
2019-02-17T16:35:13.093Z,13.82
2019-02-17T16:37:41.641Z,13.74
2019-02-17T16:40:12.935Z,13.65
2019-02-17T16:42:43.464Z,13.44
2019-02-17T16:45:16.238Z,13.28
2019-02-17T16:47:45.009Z,13.14
2019-02-17T16:50:21.528Z,13.01
2019-02-17T16:52:49.943Z,12.97
2019-02-17T16:55:18.419Z,12.79
2019-02-17T16:57:46.765Z,12.53
2019-02-17T17:00:18.996Z,12.29
2019-02-17T17:02:47.982Z,12.07
2019-02-17T17:05:16.662Z,11.74
2019-02-17T17:07:45.086Z,11.70
2019-02-17T17:10:14.080Z,11.67
2019-02-17T17:12:42.588Z,11.35
2019-02-17T17:15:11.562Z,11.13
2019-02-17T17:17:40.100Z,10.98
2019-02-17T17:20:10.785Z,10.68
2019-02-17T17:22:39.737Z,10.72
2019-02-17T17:25:10.002Z,10.25
2019-02-17T17:27:38.673Z,10.23
2019-02-17T17:30:15.200Z,9.76
2019-02-17T17:32:44.214Z,9.73
2019-02-17T17:35:12.701Z,9.49
2019-02-17T17:37:41.158Z,9.49
2019-02-17T17:40:17.209Z,9.38
2019-02-17T17:42:45.737Z,9.43
2019-02-17T17:45:22.797Z,9.16
2019-02-17T17:47:51.334Z,8.79
2019-02-17T17:50:19.761Z,8.66
2019-02-17T17:52:48.156Z,8.23
2019-02-17T17:55:16.522Z,8.16
2019-02-17T17:57:45.017Z,7.98
2019-02-17T18:00:19.401Z,7.96
2019-02-17T18:02:48.040Z,7.87
2019-02-17T18:05:16.569Z,7.70
2019-02-17T18:07:45.344Z,7.73
2019-02-17T18:10:16.307Z,7.57
2019-02-17T18:12:45.656Z,7.38
2019-02-17T18:15:17.320Z,7.62
2019-02-17T18:17:53.799Z,7.34
2019-02-17T18:20:16.487Z,6.92
2019-02-17T18:22:45.105Z,7.14
2019-02-17T18:25:15.142Z,7.31
2019-02-17T18:27:43.757Z,6.98
2019-02-17T18:30:19.441Z,6.90
2019-02-17T18:32:48.043Z,6.81
2019-02-17T18:35:20.344Z,6.66
2019-02-17T18:37:46.926Z,6.43
2019-02-17T18:40:21.877Z,6.37
2019-02-17T18:42:50.323Z,6.08
2019-02-17T18:45:19.227Z,6.02
2019-02-17T18:47:47.686Z,6.03
2019-02-17T18:50:17.187Z,5.85
2019-02-17T18:52:45.643Z,5.98
2019-02-17T18:55:14.564Z,5.63
2019-02-17T18:57:49.991Z,5.68
2019-02-17T19:00:25.012Z,5.45
2019-02-17T19:02:53.609Z,5.64
2019-02-17T19:05:31.624Z,5.44
2019-02-17T19:07:52.305Z,5.42
2019-02-17T19:10:20.735Z,5.19
2019-02-17T19:12:49.201Z,5.38
2019-02-17T19:15:19.577Z,5.28
2019-02-17T19:17:49.455Z,4.98
2019-02-17T19:20:26.772Z,5.17
2019-02-17T19:22:55.233Z,5.17
2019-02-17T19:25:23.998Z,5.26
2019-02-17T19:27:52.518Z,4.85
2019-02-17T19:30:20.945Z,4.54
2019-02-17T19:32:51.462Z,4.85
2019-02-17T19:35:19.983Z,4.76
2019-02-17T19:37:48.494Z,4.50
2019-02-17T19:40:16.914Z,4.58
2019-02-17T19:42:45.277Z,4.57
2019-02-17T19:45:18.529Z,4.72
2019-02-17T19:47:47.495Z,3.60
2019-02-17T19:50:16.623Z,3.97
2019-02-17T19:52:45.305Z,4.03
2019-02-17T19:55:14.510Z,4.35
2019-02-17T19:57:43.715Z,4.47
2019-02-17T20:00:17.369Z,4.46
2019-02-17T20:02:47.663Z,3.82
2019-02-17T20:05:19.459Z,4.18
2019-02-17T20:07:47.959Z,4.22
2019-02-17T20:10:16.778Z,4.09
2019-02-17T20:12:45.199Z,3.64
2019-02-17T20:15:13.674Z,4.17
2019-02-17T20:17:43.621Z,4.10
2019-02-17T20:20:12.423Z,4.20
2019-02-17T20:22:40.789Z,4.10
2019-02-17T20:25:10.963Z,3.99
2019-02-17T20:27:39.526Z,3.50
2019-02-17T20:30:10.544Z,3.46
2019-02-17T20:32:39.180Z,3.70
2019-02-17T20:35:11.283Z,3.58
2019-02-17T20:37:39.642Z,3.59
2019-02-17T20:40:13.106Z,3.27
2019-02-17T20:42:41.456Z,3.53
2019-02-17T20:45:11.708Z,3.44
2019-02-17T20:47:40.558Z,3.65
2019-02-17T20:50:16.563Z,3.71
2019-02-17T20:52:45.390Z,3.67
2019-02-17T20:55:14.255Z,3.66
2019-02-17T20:57:43.198Z,3.70
2019-02-17T21:00:16.799Z,3.77
2019-02-17T21:02:45.168Z,3.39
2019-02-17T21:05:14.121Z,3.14
2019-02-17T21:07:43.199Z,3.47
2019-02-17T21:10:14.187Z,3.46
2019-02-17T21:12:42.761Z,3.06
2019-02-17T21:15:17.316Z,3.21
2019-02-17T21:17:45.741Z,3.17
2019-02-17T21:20:15.440Z,3.26
2019-02-17T21:22:43.875Z,3.36
2019-02-17T21:25:13.499Z,3.26
2019-02-17T21:27:41.919Z,3.26
2019-02-17T21:30:13.134Z,3.16
2019-02-17T21:32:41.557Z,3.13
2019-02-17T21:35:12.589Z,3.18
2019-02-17T21:37:40.951Z,3.01
2019-02-17T21:40:11.708Z,2.39
2019-02-17T21:42:40.405Z,2.19
2019-02-17T21:45:14.315Z,2.21
2019-02-17T21:47:43.067Z,2.53
2019-02-17T21:50:15.272Z,2.66
2019-02-17T21:52:43.828Z,2.67
2019-02-17T21:55:15.901Z,1.91
2019-02-17T21:57:44.837Z,1.70
2019-02-17T22:00:20.136Z,1.66
2019-02-17T22:02:49.233Z,1.63
2019-02-17T22:05:18.855Z,1.50
2019-02-17T22:07:47.543Z,1.67
2019-02-17T22:10:17.632Z,1.82
2019-02-17T22:12:46.642Z,1.92
2019-02-17T22:15:23.489Z,0.95
2019-02-17T22:17:52.031Z,1.17
2019-02-17T22:20:20.483Z,1.32
2019-02-17T22:22:49.112Z,1.27
2019-02-17T22:25:18.046Z,1.38
2019-02-17T22:27:46.632Z,1.05
2019-02-17T22:30:16.585Z,0.78
2019-02-17T22:32:45.571Z,1.06
2019-02-17T22:35:14.291Z,1.17
2019-02-17T22:37:42.925Z,1.24
2019-02-17T22:40:15.784Z,1.57
2019-02-17T22:42:44.439Z,1.48
2019-02-17T22:45:13.673Z,1.45
2019-02-17T22:47:42.265Z,1.08
2019-02-17T22:50:15.062Z,1.07
2019-02-17T22:52:45.685Z,1.07
2019-02-17T22:55:14.885Z,0.78
2019-02-17T22:57:43.364Z,0.52
2019-02-17T23:00:24.878Z,0.73
2019-02-17T23:02:53.511Z,0.58
2019-02-17T23:05:21.976Z,0.78
2019-02-17T23:07:50.554Z,0.86
2019-02-17T23:10:19.064Z,1.34
2019-02-17T23:12:47.530Z,1.60
2019-02-17T23:15:16.029Z,1.77
2019-02-17T23:17:44.425Z,1.84
2019-02-17T23:20:12.928Z,1.80
2019-02-17T23:22:41.393Z,1.85
2019-02-17T23:25:10.220Z,1.75
2019-02-17T23:27:38.678Z,1.55
2019-02-17T23:30:09.202Z,1.71
2019-02-17T23:32:37.579Z,1.75
2019-02-17T23:35:06.626Z,1.88
2019-02-17T23:37:35.136Z,1.94
2019-02-17T23:40:05.294Z,1.75
2019-02-17T23:42:33.760Z,1.71
2019-02-17T23:45:02.123Z,1.56
2019-02-17T23:47:30.698Z,1.51
2019-02-17T23:49:59.076Z,1.46
2019-02-17T23:52:27.526Z,1.17
2019-02-17T23:54:55.952Z,1.29
2019-02-17T23:57:24.353Z,1.33
2019-02-17T23:59:52.703Z,1.30
